KMRH

Michael J Smith Field Airport

Beaufort, North Carolina, USA
METAR KMRH 181458Z AUTO 31014KT 10SM UP CLR M02/M08 A3024 RMK AO2 UPB19SNE19 SLP241 P0000 6//// I1016 I3/// T10221078 51012 TSNO
Observed Flight Rules
Jan-18 @ 14:58 UTC (26 minutes ago) Visual Flight Rules
Wind Visibility Clouds Conditions
310° at 14 knots 10 miles
  • Clear skies
  • Unknown precipitation
Temperatures Readings Precipitation
Current -2°C / 28°F
Dewpoint -8°C / 18°F
Humidity 64%
Altimeter 30.24" Hg
Pressure 1024.1 hPa
Elevation 3
Current Rain 0.005
METAR KMRH 181458Z AUTO 31014KT 10SM UP CLR M02/M08 A3024 RMK AO2 UPB19SNE19 SLP241 P0000 6//// I1016 I3/// T10221078 51012 TSNO
Observed Flight Rules
Jan-18 @ 14:58 UTC
(26 minutes ago)
VFR
Wind Visibility
310° at 14 knots 10 miles
Clouds
  • Clear skies
Conditions
  • Unknown precipitation
Temperature Dewpoint
-2°C / 28°F -8°C / 18°F
Humidity Altimeter Pressure
64% 30.24" Hg 1024.1 hPa
Current Rain
0.005